Time;durP1;ratioP1;P1;durP2;ratioP2;P2;SDS_P1;SDS_P2;PMS_P1;PMS_P2;Temp;Humidity;BMP_temperature;BMP_pressure;BME280_temperature;BME280_humidity;BME280_pressure;Samples;Min_cycle;Max_cycle;Signal;HPM_P1;HPM_P2
2023/08/21 00:01:10;;;;;;;6.40;3.40;;;16.30;99.90;;;;;;5074386;28;20694;-86
2023/08/21 00:03:36;;;;;;;7.17;3.50;;;16.30;99.90;;;;;;5074845;28;20270;-86
2023/08/21 00:06:01;;;;;;;5.47;3.03;;;16.30;99.90;;;;;;5075531;28;20672;-85
2023/08/21 00:08:27;;;;;;;10.83;3.93;;;16.30;99.90;;;;;;5057253;28;20228;-85
2023/08/21 00:10:53;;;;;;;6.17;3.53;;;16.30;99.90;;;;;;5056741;28;20268;-86
2023/08/21 00:13:19;;;;;;;8.03;3.23;;;16.20;99.90;;;;;;5057175;28;20212;-86
2023/08/21 00:15:44;;;;;;;7.10;4.93;;;16.20;99.90;;;;;;5056875;28;20292;-85
2023/08/21 00:18:10;;;;;;;6.90;4.40;;;16.20;99.90;;;;;;5058024;28;20200;-86
2023/08/21 00:20:36;;;;;;;7.40;3.57;;;16.20;99.90;;;;;;5074887;28;20216;-85
2023/08/21 00:23:02;;;;;;;5.30;3.53;;;16.10;99.90;;;;;;5074542;28;20219;-86
2023/08/21 00:25:28;;;;;;;4.60;3.53;;;16.00;99.90;;;;;;5057225;28;20221;-86
2023/08/21 00:27:53;;;;;;;3.43;2.80;;;16.10;99.90;;;;;;5074808;28;20228;-86
2023/08/21 00:30:19;;;;;;;4.13;2.30;;;15.90;99.90;;;;;;5056929;28;20177;-85
2023/08/21 00:32:45;;;;;;;2.87;2.27;;;15.50;99.90;;;;;;5041007;28;20189;-87
2023/08/21 00:35:10;;;;;;;4.33;2.23;;;15.20;99.90;;;;;;5057123;28;20266;-86
2023/08/21 00:37:36;;;;;;;4.03;2.93;;;15.20;99.90;;;;;;5074843;28;20219;-84
2023/08/21 00:40:02;;;;;;;4.77;2.77;;;15.20;99.90;;;;;;5074170;28;20858;-86
2023/08/21 00:42:28;;;;;;;7.17;2.87;;;15.40;99.90;;;;;;5074678;28;20212;-86
2023/08/21 00:44:54;;;;;;;4.50;2.80;;;15.40;99.90;;;;;;5040663;28;20700;-86
2023/08/21 00:47:19;;;;;;;4.90;3.13;;;15.50;99.90;;;;;;5073347;28;20217;-85
2023/08/21 00:49:45;;;;;;;3.50;2.60;;;15.50;99.90;;;;;;5074567;28;20240;-86
2023/08/21 00:52:14;;;;;;;3.13;2.77;;;15.50;99.90;;;;;;5074250;28;20376;-85
2023/08/21 00:54:40;;;;;;;6.30;3.20;;;15.60;99.90;;;;;;5074599;28;20205;-85
2023/08/21 00:57:06;;;;;;;8.60;3.20;;;15.60;99.90;;;;;;5057602;28;20181;-88
2023/08/21 00:59:32;;;;;;;7.13;3.37;;;15.70;99.90;;;;;;5056579;28;20293;-88
2023/08/21 01:01:57;;;;;;;2.87;2.53;;;15.70;99.90;;;;;;5053692;28;20232;-88
2023/08/21 01:04:23;;;;;;;4.87;3.10;;;15.70;99.90;;;;;;5070546;28;20222;-85
2023/08/21 01:06:50;;;;;;;4.80;3.23;;;15.70;99.90;;;;;;5071209;28;20263;-86
2023/08/21 01:09:26;;;;;;;4.67;2.60;;;15.60;99.90;;;;;;5071458;28;20174;-87
2023/08/21 01:12:08;;;;;;;9.23;3.27;;;15.60;99.90;;;;;;5053965;28;20165;-88
2023/08/21 01:14:40;;;;;;;5.17;3.60;;;15.60;99.90;;;;;;5071478;28;20244;-87
2023/08/21 01:17:09;;;;;;;2.67;2.40;;;15.60;99.90;;;;;;5053725;28;20229;-88
2023/08/21 01:19:41;;;;;;;3.57;2.47;;;15.60;99.90;;;;;;5053225;28;20209;-87
2023/08/21 01:22:07;;;;;;;5.17;3.57;;;15.60;99.90;;;;;;5053319;28;20205;-87
2023/08/21 01:24:33;;;;;;;5.00;3.00;;;15.70;99.90;;;;;;5053607;28;20505;-88
2023/08/21 01:26:59;;;;;;;8.53;3.80;;;15.60;99.90;;;;;;5037228;28;20205;-87
2023/08/21 01:29:25;;;;;;;5.13;2.67;;;15.60;99.90;;;;;;5053426;28;20694;-87
2023/08/21 01:32:01;;;;;;;4.13;3.00;;;15.60;99.90;;;;;;5036748;28;20416;-87
2023/08/21 01:34:29;;;;;;;10.50;3.57;;;15.60;99.90;;;;;;5053013;28;20219;-85
2023/08/21 01:36:56;;;;;;;6.07;3.33;;;15.60;99.90;;;;;;5053342;28;20221;-87
2023/08/21 01:39:22;;;;;;;8.00;3.53;;;15.60;99.90;;;;;;5069999;28;20250;-87
2023/08/21 01:41:48;;;;;;;3.03;2.60;;;15.70;99.90;;;;;;5071670;28;20185;-87
2023/08/21 01:44:14;;;;;;;9.50;3.57;;;15.70;99.90;;;;;;5052581;28;20239;-88
2023/08/21 01:46:40;;;;;;;4.37;2.50;;;15.70;99.90;;;;;;5052753;28;20225;-86
2023/08/21 01:49:05;;;;;;;7.40;3.87;;;15.70;99.90;;;;;;5070569;28;20213;-87
2023/08/21 01:51:31;;;;;;;10.07;3.83;;;15.70;99.90;;;;;;5052604;28;20661;-87
2023/08/21 01:53:57;;;;;;;5.40;3.03;;;15.70;99.90;;;;;;5071196;28;20185;-87
2023/08/21 01:56:23;;;;;;;4.00;2.93;;;15.70;99.90;;;;;;5070477;28;20465;-87
2023/08/21 01:58:48;;;;;;;6.80;3.20;;;15.70;99.90;;;;;;5070546;28;20365;-88
2023/08/21 02:01:14;;;;;;;3.90;3.10;;;15.60;99.90;;;;;;5052521;28;20233;-88
2023/08/21 02:03:41;;;;;;;3.50;2.07;;;15.30;99.90;;;;;;5052083;28;20299;-86
2023/08/21 02:06:07;;;;;;;9.57;2.23;;;15.00;99.90;;;;;;5052995;28;20642;-88
2023/08/21 02:08:33;;;;;;;5.50;2.80;;;14.90;99.90;;;;;;5052177;28;20229;-87
2023/08/21 02:10:59;;;;;;;4.00;2.43;;;14.90;99.90;;;;;;5068935;28;20385;-86
2023/08/21 02:13:25;;;;;;;3.30;2.93;;;14.90;99.90;;;;;;5052118;28;20217;-87
2023/08/21 02:15:51;;;;;;;6.43;2.27;;;15.00;99.90;;;;;;5052411;28;20217;-85
2023/08/21 02:18:17;;;;;;;4.67;2.73;;;15.10;99.90;;;;;;5070115;28;20272;-89
2023/08/21 02:20:42;;;;;;;7.40;3.30;;;15.10;99.90;;;;;;5070371;28;20778;-88
2023/08/21 02:23:08;;;;;;;4.90;3.40;;;15.20;99.90;;;;;;5069887;28;20213;-87
2023/08/21 02:25:34;;;;;;;7.83;4.07;;;15.30;99.90;;;;;;5069609;28;20244;-87
2023/08/21 02:28:01;;;;;;;8.30;3.30;;;15.30;99.90;;;;;;5069673;28;20229;-88
2023/08/21 02:30:28;;;;;;;5.10;2.77;;;15.30;99.90;;;;;;5069758;28;20641;-88
2023/08/21 02:32:54;;;;;;;7.67;2.90;;;15.30;99.90;;;;;;5035948;28;20205;-87
2023/08/21 02:35:20;;;;;;;3.03;2.20;;;15.30;99.90;;;;;;5069508;28;20213;-88
2023/08/21 02:37:46;;;;;;;4.43;2.43;;;15.00;99.90;;;;;;5069077;28;20246;-87
2023/08/21 02:40:12;;;;;;;11.80;2.43;;;14.80;99.90;;;;;;5051644;28;20304;-88
2023/08/21 02:42:38;;;;;;;3.57;2.63;;;14.40;99.90;;;;;;5051632;28;20221;-87
2023/08/21 02:45:08;;;;;;;1.97;1.63;;;14.10;99.90;;;;;;5052014;28;20177;-87
2023/08/21 02:47:40;;;;;;;3.30;2.37;;;14.00;99.90;;;;;;5069179;28;20217;-86
2023/08/21 02:50:08;;;;;;;3.87;2.73;;;14.10;99.90;;;;;;5051357;28;20625;-87
2023/08/21 02:52:34;;;;;;;2.97;1.87;;;14.30;99.90;;;;;;5069266;28;20216;-88
2023/08/21 02:55:00;;;;;;;2.67;1.77;;;14.30;99.90;;;;;;5051305;28;20330;-87
2023/08/21 02:57:27;;;;;;;2.70;2.00;;;14.20;99.90;;;;;;5051415;28;20268;-86
2023/08/21 02:59:53;;;;;;;6.23;2.07;;;14.30;99.90;;;;;;5051648;28;20223;-88
2023/08/21 03:02:19;;;;;;;3.20;2.47;;;14.30;99.90;;;;;;5051347;28;20229;-85
2023/08/21 03:04:45;;;;;;;6.27;2.80;;;14.40;99.90;;;;;;5068966;28;20209;-87
2023/08/21 03:07:10;;;;;;;3.97;3.37;;;14.60;99.90;;;;;;5068348;28;20225;-87
2023/08/21 03:09:37;;;;;;;4.37;2.77;;;14.60;99.90;;;;;;5069035;28;20220;-86
2023/08/21 03:12:03;;;;;;;3.90;2.33;;;14.70;99.90;;;;;;5051872;28;20177;-88
2023/08/21 03:14:29;;;;;;;3.73;2.60;;;14.80;99.90;;;;;;5034299;28;20217;-88
2023/08/21 03:16:55;;;;;;;6.37;3.30;;;14.90;99.90;;;;;;5051257;28;20243;-86
2023/08/21 03:19:21;;;;;;;4.57;3.33;;;14.90;99.90;;;;;;5067587;28;20213;-86
2023/08/21 03:21:46;;;;;;;9.70;3.03;;;15.00;99.90;;;;;;5068584;28;20793;-86
2023/08/21 03:24:12;;;;;;;6.77;3.20;;;15.00;99.90;;;;;;5051317;28;20351;-87
2023/08/21 03:26:38;;;;;;;8.13;3.30;;;15.00;99.90;;;;;;5068351;28;20339;-88
2023/08/21 03:29:03;;;;;;;3.80;2.67;;;15.00;99.90;;;;;;5050848;28;20272;-88
2023/08/21 03:31:30;;;;;;;3.33;2.70;;;15.00;99.90;;;;;;5050593;28;20735;-87
2023/08/21 03:33:56;;;;;;;5.87;2.80;;;15.00;99.90;;;;;;5068459;28;20304;-86
2023/08/21 03:36:30;;;;;;;4.30;3.03;;;15.00;99.90;;;;;;5068763;28;20208;-87
2023/08/21 03:38:57;;;;;;;4.60;2.37;;;15.10;99.90;;;;;;5069243;28;20169;-88
2023/08/21 03:41:22;;;;;;;2.97;1.60;;;15.00;99.90;;;;;;5068432;28;20233;-88
2023/08/21 03:43:48;;;;;;;6.53;1.70;;;14.60;99.90;;;;;;5068220;28;20239;-88
2023/08/21 03:46:14;;;;;;;14.33;2.20;;;14.20;99.90;;;;;;5034751;28;20236;-85
2023/08/21 03:48:40;;;;;;;5.53;1.37;;;13.80;99.90;;;;;;5050777;28;20644;-87
2023/08/21 03:51:05;;;;;;;1.70;1.60;;;13.60;99.90;;;;;;5051173;28;20184;-87
2023/08/21 03:53:31;;;;;;;1.77;1.20;;;13.50;99.90;;;;;;5068481;28;20217;-87
2023/08/21 03:55:57;;;;;;;1.53;1.43;;;13.40;99.90;;;;;;5050949;28;20225;-87
2023/08/21 03:58:25;;;;;;;1.93;1.33;;;13.50;99.90;;;;;;5067807;28;20276;-88
2023/08/21 04:00:51;;;;;;;1.33;1.23;;;13.50;99.90;;;;;;5034318;28;20228;-87
2023/08/21 04:03:16;;;;;;;9.40;2.33;;;13.60;99.90;;;;;;5050933;28;20185;-88
2023/08/21 04:05:42;;;;;;;2.13;1.77;;;13.70;99.90;;;;;;5069012;28;20230;-87
2023/08/21 04:08:08;;;;;;;2.17;1.70;;;13.70;99.90;;;;;;5050603;28;20217;-88
2023/08/21 04:10:34;;;;;;;5.67;1.60;;;13.70;99.90;;;;;;5068007;28;20219;-87
2023/08/21 04:12:59;;;;;;;1.50;1.40;;;13.70;99.90;;;;;;5034200;28;20684;-86
2023/08/21 04:15:26;;;;;;;1.77;1.33;;;13.60;99.90;;;;;;5033997;28;20184;-88
2023/08/21 04:17:52;;;;;;;1.70;1.20;;;13.60;99.90;;;;;;5068477;28;20186;-87
2023/08/21 04:20:21;;;;;;;3.07;2.47;;;13.50;99.90;;;;;;5066947;28;20225;-87
2023/08/21 04:22:47;;;;;;;2.10;1.00;;;13.50;99.90;;;;;;5067511;28;20216;-86
2023/08/21 04:25:13;;;;;;;2.73;1.70;;;13.40;99.90;;;;;;5033308;28;20208;-86
2023/08/21 04:27:39;;;;;;;1.60;1.40;;;13.40;99.90;;;;;;5067874;28;20225;-87
2023/08/21 04:30:05;;;;;;;6.20;2.10;;;13.60;99.90;;;;;;5068351;28;20207;-87
2023/08/21 04:32:31;;;;;;;2.43;1.90;;;13.80;99.90;;;;;;5050166;28;20263;-87
2023/08/21 04:34:57;;;;;;;2.83;2.17;;;14.00;99.90;;;;;;5067531;28;20222;-87
2023/08/21 04:37:23;;;;;;;3.73;2.30;;;14.10;99.90;;;;;;5069096;28;20240;-87
2023/08/21 04:39:55;;;;;;;3.57;2.30;;;14.30;99.90;;;;;;5071379;28;20372;-87
2023/08/21 04:42:22;;;;;;;3.80;2.90;;;14.40;99.90;;;;;;5053471;28;20626;-86
2023/08/21 04:44:48;;;;;;;4.03;2.97;;;14.50;99.90;;;;;;5054303;28;20212;-87
2023/08/21 04:47:21;;;;;;;4.93;2.83;;;14.60;99.90;;;;;;5071404;28;20221;-87
2023/08/21 04:49:51;;;;;;;3.60;1.97;;;14.60;99.90;;;;;;5053835;28;20217;-88
2023/08/21 04:52:17;;;;;;;5.03;2.90;;;14.70;99.90;;;;;;5053882;28;20670;-88
2023/08/21 04:54:42;;;;;;;4.17;2.30;;;14.70;99.90;;;;;;5053795;28;20213;-88
2023/08/21 04:57:08;;;;;;;3.20;2.67;;;14.80;99.90;;;;;;5054164;28;20185;-86
2023/08/21 04:59:36;;;;;;;4.07;2.97;;;14.80;99.90;;;;;;5070251;28;20212;-87
2023/08/21 05:02:02;;;;;;;4.23;3.07;;;14.80;99.90;;;;;;5053115;28;20279;-85
2023/08/21 05:04:27;;;;;;;7.03;4.17;;;14.90;99.90;;;;;;5053684;28;20221;-87
2023/08/21 05:06:53;;;;;;;5.23;2.53;;;15.00;99.90;;;;;;5053458;28;20233;-88
2023/08/21 05:09:19;;;;;;;5.17;2.83;;;15.10;99.90;;;;;;5071429;28;20280;-88
2023/08/21 05:11:45;;;;;;;5.63;2.30;;;15.10;99.90;;;;;;5053867;28;20201;-86
2023/08/21 05:14:10;;;;;;;3.50;2.73;;;14.90;99.90;;;;;;5052902;28;20237;-87
2023/08/21 05:16:36;;;;;;;6.17;2.97;;;14.90;99.90;;;;;;5053164;28;20251;-86
2023/08/21 05:19:02;;;;;;;3.70;2.43;;;15.00;99.90;;;;;;5052812;28;20223;-87
2023/08/21 05:21:28;;;;;;;4.60;3.70;;;15.00;99.90;;;;;;5052983;28;20173;-85
2023/08/21 05:23:53;;;;;;;5.03;3.07;;;15.10;99.90;;;;;;5071432;28;20181;-88
2023/08/21 05:26:19;;;;;;;5.10;3.10;;;15.30;99.90;;;;;;5071006;28;20267;-87
2023/08/21 05:28:45;;;;;;;2.87;2.53;;;15.40;99.90;;;;;;5069994;28;20228;-87
2023/08/21 05:31:11;;;;;;;7.23;3.43;;;15.70;99.90;;;;;;5070524;28;20213;-85
2023/08/21 05:33:38;;;;;;;2.80;2.17;;;15.80;99.90;;;;;;5070452;28;20339;-88
2023/08/21 05:36:04;;;;;;;6.60;2.60;;;15.90;99.90;;;;;;5053355;28;20185;-87
2023/08/21 05:38:30;;;;;;;3.27;2.93;;;16.20;99.90;;;;;;5070878;28;20209;-85
2023/08/21 05:40:56;;;;;;;2.77;2.30;;;16.20;99.90;;;;;;5052893;28;20212;-86
2023/08/21 05:43:22;;;;;;;7.37;2.80;;;16.10;99.90;;;;;;5070982;28;20225;-89
2023/08/21 05:45:48;;;;;;;3.70;3.17;;;16.20;99.90;;;;;;5053354;28;20209;-88
2023/08/21 05:48:14;;;;;;;5.50;3.53;;;16.20;99.90;;;;;;5053294;28;20236;-89
2023/08/21 05:50:39;;;;;;;3.80;3.03;;;16.50;99.90;;;;;;5052669;28;20244;-87
2023/08/21 05:53:06;;;;;;;5.83;3.57;;;17.50;99.90;;;;;;5036406;28;20681;-89
2023/08/21 05:55:32;;;;;;;6.43;4.93;;;19.20;99.90;;;;;;5052822;28;20221;-89
2023/08/21 05:57:58;;;;;;;13.27;6.40;;;20.80;99.90;;;;;;5052967;28;20244;-88
2023/08/21 06:00:24;;;;;;;22.97;10.27;;;22.40;99.90;;;;;;5035811;28;20257;-89
2023/08/21 06:02:50;;;;;;;10.63;5.33;;;23.90;99.90;;;;;;5037031;28;20234;-89
2023/08/21 06:05:16;;;;;;;6.97;4.73;;;24.90;99.90;;;;;;5070401;28;20274;-86
2023/08/21 06:07:42;;;;;;;10.77;4.63;;;25.50;99.90;;;;;;5036540;28;20247;-90
2023/08/21 06:10:11;;;;;;;4.60;2.67;;;26.70;99.90;;;;;;5052577;28;20213;-87
2023/08/21 06:12:37;;;;;;;2.43;1.90;;;27.50;99.90;;;;;;5052974;28;20220;-89
2023/08/21 06:15:03;;;;;;;3.30;2.50;;;28.30;99.90;;;;;;5071070;28;20177;-88
2023/08/21 06:17:29;;;;;;;2.80;2.07;;;29.10;99.90;;;;;;5053038;28;20218;-87
2023/08/21 06:19:55;;;;;;;3.33;2.30;;;29.40;99.90;;;;;;5052983;28;20209;-87
2023/08/21 06:22:21;;;;;;;2.55;2.13;;;29.40;99.90;;;;;;5069410;28;20224;-87
2023/08/21 06:24:47;;;;;;;4.18;2.10;;;29.90;99.90;;;;;;5053138;28;20209;-87
2023/08/21 06:27:12;;;;;;;2.00;1.80;;;30.60;99.90;;;;;;5071073;28;20240;-87
2023/08/21 06:29:40;;;;;;;3.85;1.70;;;30.70;99.90;;;;;;5053035;28;20351;-87
2023/08/21 06:32:06;;;;;;;2.05;1.90;;;30.20;99.90;;;;;;5070445;28;20213;-85
2023/08/21 06:34:31;;;;;;;3.22;2.10;;;30.20;99.90;;;;;;5053066;28;20208;-86
2023/08/21 06:36:57;;;;;;;5.13;2.30;;;30.30;99.90;;;;;;5069978;28;20236;-86
2023/08/21 06:39:23;;;;;;;4.90;2.00;;;30.70;99.90;;;;;;5052208;28;20173;-87
2023/08/21 06:41:49;;;;;;;2.83;2.08;;;30.50;99.90;;;;;;5053387;28;20173;-87
2023/08/21 06:44:14;;;;;;;2.20;1.38;;;30.10;99.90;;;;;;5035440;28;20250;-88
2023/08/21 06:46:40;;;;;;;5.55;2.28;;;29.30;99.90;;;;;;5070003;28;20312;-88
2023/08/21 06:49:06;;;;;;;2.42;1.77;;;28.50;99.90;;;;;;5052421;28;20213;-87
2023/08/21 06:51:32;;;;;;;2.38;1.67;;;27.40;99.90;;;;;;5052478;28;20537;-88
2023/08/21 06:53:59;;;;;;;3.25;2.50;;;26.80;99.90;;;;;;5070362;28;20193;-89
2023/08/21 06:56:25;;;;;;;4.15;2.13;;;26.40;99.90;;;;;;5068784;28;20217;-90
2023/08/21 06:58:52;;;;;;;4.28;2.55;;;27.70;99.90;;;;;;5034664;28;20221;-90
2023/08/21 07:01:17;;;;;;;3.90;2.42;;;29.80;99.90;;;;;;5050781;28;20241;-88
2023/08/21 07:03:43;;;;;;;3.42;2.33;;;31.30;99.90;;;;;;5052046;28;20212;-86
2023/08/21 07:06:09;;;;;;;3.53;2.20;;;32.30;99.90;;;;;;5070201;28;20228;-87
2023/08/21 07:08:35;;;;;;;2.67;2.30;;;32.30;99.90;;;;;;5067862;28;20287;-87
2023/08/21 07:11:04;;;;;;;4.65;2.70;;;31.90;99.90;;;;;;5052242;28;20233;-88
2023/08/21 07:13:30;;;;;;;4.07;2.30;;;32.70;99.90;;;;;;5034673;28;20205;-88
2023/08/21 07:15:56;;;;;;;6.78;2.45;;;32.30;99.90;;;;;;5069339;28;20224;-86
2023/08/21 07:18:22;;;;;;;6.50;2.63;;;32.00;99.90;;;;;;5034622;28;20189;-88
2023/08/21 07:20:47;;;;;;;6.90;2.50;;;32.20;99.90;;;;;;5051840;28;20200;-87
2023/08/21 07:23:13;;;;;;;3.53;1.83;;;32.90;99.90;;;;;;5051488;28;20245;-89
2023/08/21 07:25:39;;;;;;;7.47;2.63;;;33.60;99.90;;;;;;5069192;28;20538;-88
2023/08/21 07:28:05;;;;;;;3.15;1.83;;;34.30;99.90;;;;;;5035323;28;20249;-88
2023/08/21 07:30:31;;;;;;;3.88;2.17;;;33.80;99.90;;;;;;5051320;28;20266;-88
2023/08/21 07:32:56;;;;;;;2.88;2.10;;;32.80;99.90;;;;;;5052128;28;20177;-87
2023/08/21 07:35:25;;;;;;;5.45;2.00;;;32.00;99.90;;;;;;5051023;28;20554;-88
2023/08/21 07:37:51;;;;;;;3.20;1.60;;;31.40;99.90;;;;;;5051234;28;20225;-87
2023/08/21 07:40:16;;;;;;;6.55;2.17;;;32.30;99.90;;;;;;5068967;28;20220;-89
2023/08/21 07:42:42;;;;;;;4.07;2.10;;;32.20;99.90;;;;;;5069300;28;20651;-88
2023/08/21 07:45:08;;;;;;;8.20;2.40;;;32.80;99.90;;;;;;5036031;28;20173;-89
2023/08/21 07:47:34;;;;;;;5.10;2.30;;;33.50;99.90;;;;;;5069176;28;20282;-90
2023/08/21 07:50:00;;;;;;;3.20;2.15;;;33.50;99.90;;;;;;5050952;28;20678;-90
2023/08/21 07:52:26;;;;;;;2.22;1.92;;;32.60;99.90;;;;;;5067210;28;20235;-88
2023/08/21 07:54:53;;;;;;;6.20;2.28;;;32.90;99.90;;;;;;5068463;28;20240;-91
2023/08/21 07:57:19;;;;;;;5.00;2.40;;;33.30;99.90;;;;;;5050440;28;20182;-88
2023/08/21 07:59:44;;;;;;;3.85;1.90;;;33.00;99.90;;;;;;5050514;28;20223;-86
2023/08/21 08:02:13;;;;;;;3.20;2.10;;;33.80;99.90;;;;;;5067730;28;20395;-86
2023/08/21 08:04:39;;;;;;;4.88;2.00;;;33.50;99.90;;;;;;5034361;28;20236;-85
2023/08/21 08:07:05;;;;;;;4.38;2.00;;;32.90;99.90;;;;;;5050366;28;20225;-87
2023/08/21 08:09:31;;;;;;;2.22;1.80;;;33.60;99.90;;;;;;5050194;28;20181;-86
2023/08/21 08:11:57;;;;;;;3.55;2.28;;;33.10;99.90;;;;;;5069774;28;20200;-87
2023/08/21 08:14:22;;;;;;;5.00;2.38;;;33.10;99.90;;;;;;5054808;28;20216;-86
2023/08/21 08:16:48;;;;;;;3.45;1.92;;;32.50;99.90;;;;;;5072511;28;20238;-87
2023/08/21 08:19:14;;;;;;;3.20;2.15;;;32.60;99.90;;;;;;5038068;28;20217;-87
2023/08/21 08:21:40;;;;;;;6.22;2.53;;;33.10;99.90;;;;;;5038236;28;20247;-87
2023/08/21 08:24:06;;;;;;;2.33;2.03;;;33.10;99.90;;;;;;5055474;28;20379;-87
2023/08/21 08:26:32;;;;;;;5.43;2.30;;;33.70;99.90;;;;;;5054429;28;20681;-88
2023/08/21 08:28:57;;;;;;;3.63;2.15;;;34.40;99.90;;;;;;5072160;28;20296;-87
2023/08/21 08:31:25;;;;;;;4.35;1.67;;;33.70;99.90;;;;;;5054243;28;20217;-87
2023/08/21 08:33:51;;;;;;;5.28;2.20;;;33.90;99.90;;;;;;5054301;28;20217;-87
2023/08/21 08:36:17;;;;;;;4.70;1.70;;;34.80;99.90;;;;;;5072051;28;20181;-86
2023/08/21 08:38:43;;;;;;;4.07;1.90;;;34.00;99.90;;;;;;5054793;28;20200;-87
2023/08/21 08:41:24;;;;;;;3.63;1.70;;;34.30;99.90;;;;;;5037258;28;20567;-87
2023/08/21 08:43:53;;;;;;;3.25;1.73;;;34.80;99.90;;;;;;5053356;28;20437;-87
2023/08/21 08:46:19;;;;;;;4.32;2.10;;;34.50;99.90;;;;;;5071735;28;20370;-88
2023/08/21 08:48:45;;;;;;;4.22;1.90;;;33.90;99.90;;;;;;5037575;28;20702;-87
2023/08/21 08:51:12;;;;;;;4.90;1.55;;;33.60;99.90;;;;;;5072328;28;20315;-88
2023/08/21 08:53:38;;;;;;;7.18;1.70;;;34.10;99.90;;;;;;5071613;28;20216;-88
2023/08/21 08:56:04;;;;;;;3.90;1.25;;;34.00;99.90;;;;;;5070644;28;20217;-87
2023/08/21 08:58:29;;;;;;;3.47;1.58;;;34.40;99.90;;;;;;5070764;28;20220;-87
2023/08/21 09:00:55;;;;;;;6.05;1.70;;;35.30;99.90;;;;;;5053282;28;20233;-89
2023/08/21 09:03:21;;;;;;;3.33;1.38;;;35.20;99.90;;;;;;5054382;28;20627;-87
2023/08/21 09:05:48;;;;;;;2.30;1.42;;;35.20;99.90;;;;;;5037859;28;20322;-88
2023/08/21 09:08:14;;;;;;;2.92;1.67;;;34.30;99.90;;;;;;5053432;28;20565;-87
2023/08/21 09:10:41;;;;;;;1.52;1.42;;;34.40;99.90;;;;;;5053635;28;20241;-87
2023/08/21 09:13:16;;;;;;;3.03;1.40;;;35.20;99.90;;;;;;5070905;28;20236;-87
2023/08/21 09:15:47;;;;;;;3.00;1.83;;;34.30;99.90;;;;;;5036876;28;20215;-85
2023/08/21 09:18:14;;;;;;;2.65;1.45;;;33.70;99.90;;;;;;5071520;28;20185;-88
2023/08/21 09:20:41;;;;;;;2.42;1.40;;;33.30;99.90;;;;;;5071319;28;20697;-87
2023/08/21 09:23:07;;;;;;;3.97;1.35;;;34.00;99.90;;;;;;5052508;28;20364;-86
2023/08/21 09:25:38;;;;;;;4.82;1.30;;;32.90;99.90;;;;;;5052981;28;20670;-87
2023/08/21 09:28:06;;;;;;;3.28;1.42;;;32.50;99.90;;;;;;5052746;28;20221;-87
2023/08/21 09:30:53;;;;;;;5.72;1.33;;;32.70;99.90;;;;;;5070485;28;20173;-85
2023/08/21 09:33:23;;;;;;;2.78;1.20;;;33.60;99.90;;;;;;5070733;28;20511;-86
2023/08/21 09:35:52;;;;;;;3.65;1.63;;;34.70;99.90;;;;;;5071072;28;20207;-86
2023/08/21 09:38:21;;;;;;;2.97;1.50;;;34.00;99.90;;;;;;5069461;28;20228;-86
2023/08/21 09:40:56;;;;;;;6.10;1.52;;;33.40;99.90;;;;;;5070582;28;20437;-86
2023/08/21 09:43:23;;;;;;;3.85;1.40;;;34.20;99.90;;;;;;5071146;28;20235;-87
2023/08/21 09:45:52;;;;;;;4.28;1.73;;;35.00;99.90;;;;;;5052806;28;20213;-87
2023/08/21 09:48:19;;;;;;;3.90;1.40;;;35.20;99.90;;;;;;5052480;28;20209;-86
2023/08/21 09:50:46;;;;;;;2.45;1.30;;;34.80;99.90;;;;;;5071153;28;20216;-86
2023/08/21 09:53:12;;;;;;;2.75;1.58;;;33.90;99.90;;;;;;5070137;28;20591;-86
2023/08/21 09:55:39;;;;;;;2.55;1.52;;;33.50;99.90;;;;;;5070188;28;20390;-87
2023/08/21 09:58:07;;;;;;;6.00;1.40;;;33.30;99.90;;;;;;5069414;28;20233;-87
2023/08/21 10:00:35;;;;;;;3.00;1.10;;;33.10;99.90;;;;;;5066267;28;20237;-87
2023/08/21 10:03:03;;;;;;;2.22;1.33;;;33.20;99.90;;;;;;5053489;28;20192;-88
2023/08/21 10:05:33;;;;;;;2.25;1.25;;;33.80;99.90;;;;;;5070611;28;20216;-86
2023/08/21 10:08:02;;;;;;;3.60;1.23;;;34.20;99.90;;;;;;5070378;28;20248;-87
2023/08/21 10:10:33;;;;;;;3.55;1.27;;;33.80;99.90;;;;;;5052482;28;20720;-87
2023/08/21 10:13:00;;;;;;;2.70;1.00;;;33.10;99.90;;;;;;5070062;28;20216;-87
2023/08/21 10:15:28;;;;;;;7.78;1.00;;;33.70;99.90;;;;;;5052194;28;20173;-88
2023/08/21 10:17:54;;;;;;;1.88;1.13;;;33.60;99.90;;;;;;5070360;28;20177;-88
2023/08/21 10:20:23;;;;;;;1.90;1.13;;;33.50;99.90;;;;;;5070096;28;20213;-87
2023/08/21 10:22:54;;;;;;;5.38;1.15;;;34.40;99.90;;;;;;5069785;28;20610;-89
2023/08/21 10:25:25;;;;;;;1.45;0.88;;;34.20;99.90;;;;;;5069809;28;20223;-89
2023/08/21 10:27:56;;;;;;;1.27;0.88;;;33.90;99.90;;;;;;5052461;28;20244;-88
2023/08/21 10:30:24;;;;;;;3.90;1.15;;;33.60;99.90;;;;;;5070476;28;20192;-89
2023/08/21 10:32:55;;;;;;;1.92;1.83;;;33.90;99.90;;;;;;5053835;28;20169;-89
2023/08/21 10:35:23;;;;;;;1.33;0.80;;;33.60;99.90;;;;;;5052396;28;20288;-86
2023/08/21 10:38:16;;;;;;;1.73;1.17;;;32.60;99.90;;;;;;5052823;28;20224;-89
2023/08/21 10:41:07;;;;;;;4.72;1.33;;;32.30;99.90;;;;;;5052447;28;20278;-89
2023/08/21 10:43:41;;;;;;;3.65;1.10;;;32.60;99.90;;;;;;5070946;28;20209;-89
2023/08/21 10:46:08;;;;;;;3.63;1.23;;;32.90;99.90;;;;;;5052061;28;20213;-88
2023/08/21 10:48:35;;;;;;;2.90;1.05;;;33.40;99.90;;;;;;5051809;28;20260;-88
2023/08/21 10:51:08;;;;;;;2.55;1.13;;;33.30;99.90;;;;;;5052445;28;20170;-88
2023/08/21 10:53:35;;;;;;;3.00;1.25;;;32.10;99.90;;;;;;5051912;28;20686;-87
2023/08/21 10:56:05;;;;;;;5.38;1.33;;;32.80;99.90;;;;;;5052371;28;20305;-88
2023/08/21 10:58:45;;;;;;;2.67;1.60;;;33.20;99.90;;;;;;5052171;28;20243;-87
2023/08/21 11:01:13;;;;;;;3.00;1.50;;;32.50;99.90;;;;;;5068663;28;20722;-87
2023/08/21 11:03:39;;;;;;;4.28;1.45;;;32.40;99.90;;;;;;5051193;28;20235;-89
2023/08/21 11:06:07;;;;;;;3.30;1.88;;;31.10;99.90;;;;;;5070343;28;20181;-89
2023/08/21 11:08:34;;;;;;;3.90;1.30;;;30.40;99.90;;;;;;5069307;28;20217;-89
2023/08/21 11:11:04;;;;;;;1.73;1.00;;;29.20;99.90;;;;;;5051689;28;20221;-89
2023/08/21 11:13:31;;;;;;;4.25;1.50;;;28.50;99.90;;;;;;5051621;28;20205;-88
2023/08/21 11:16:03;;;;;;;3.85;1.35;;;28.50;99.90;;;;;;5069428;28;20255;-91
2023/08/21 11:18:37;;;;;;;5.80;2.15;;;27.90;99.90;;;;;;5084892;28;20177;-89
2023/08/21 11:21:08;;;;;;;4.97;2.08;;;27.80;99.90;;;;;;5070051;28;20173;-90
2023/08/21 11:23:39;;;;;;;6.00;1.88;;;28.50;99.90;;;;;;5069618;28;20208;-87
2023/08/21 11:26:09;;;;;;;2.55;1.38;;;28.90;99.90;;;;;;5051915;28;20213;-90
2023/08/21 11:28:35;;;;;;;2.22;1.60;;;29.50;99.90;;;;;;5069210;28;20606;-90
2023/08/21 11:31:01;;;;;;;4.60;2.03;;;30.20;99.90;;;;;;5068657;28;20210;-89
2023/08/21 11:33:28;;;;;;;4.40;3.20;;;30.70;99.90;;;;;;5051421;28;20174;-88
2023/08/21 11:35:57;;;;;;;4.90;2.38;;;30.10;99.90;;;;;;5035661;28;20272;-88
2023/08/21 11:38:25;;;;;;;4.85;2.38;;;29.10;99.90;;;;;;5068940;28;20300;-87
2023/08/21 11:40:59;;;;;;;8.00;2.80;;;28.90;99.90;;;;;;5069366;28;20205;-89
2023/08/21 11:43:39;;;;;;;4.78;2.90;;;29.40;99.90;;;;;;5035044;28;20308;-85
2023/08/21 11:46:06;;;;;;;5.07;2.72;;;29.30;99.90;;;;;;5050872;28;20350;-85
2023/08/21 11:48:32;;;;;;;4.35;2.80;;;28.80;99.90;;;;;;5068489;28;20205;-89
2023/08/21 11:50:59;;;;;;;6.55;3.42;;;28.40;99.90;;;;;;5051342;28;20169;-86
2023/08/21 11:53:39;;;;;;;7.03;3.67;;;28.40;99.90;;;;;;5068614;28;20216;-90
2023/08/21 11:56:15;;;;;;;8.45;3.75;;;28.70;99.90;;;;;;5068337;28;20219;-88
2023/08/21 11:58:42;;;;;;;5.47;3.30;;;28.00;99.90;;;;;;5051092;28;20266;-88
2023/08/21 12:01:09;;;;;;;6.75;2.83;;;28.10;99.90;;;;;;5067347;28;20623;-86
2023/08/21 12:03:37;;;;;;;6.80;3.10;;;27.80;99.90;;;;;;5050742;28;23174;-90
2023/08/21 12:06:08;;;;;;;7.18;2.63;;;27.40;99.90;;;;;;5069423;28;20695;-88
2023/08/21 12:08:34;;;;;;;3.13;2.70;;;26.90;99.90;;;;;;5068308;28;20228;-86
2023/08/21 12:11:00;;;;;;;8.52;2.75;;;26.80;99.90;;;;;;5050883;28;20662;-87
2023/08/21 12:13:26;;;;;;;5.80;2.33;;;26.60;99.90;;;;;;5068564;28;20209;-88
2023/08/21 12:15:52;;;;;;;4.05;2.50;;;26.60;99.90;;;;;;5069426;28;20716;-85
2023/08/21 12:18:17;;;;;;;4.30;2.53;;;26.80;99.90;;;;;;5033748;28;20209;-85
2023/08/21 12:20:43;;;;;;;4.28;2.00;;;27.00;99.90;;;;;;5050875;28;20173;-86
2023/08/21 12:23:09;;;;;;;2.92;2.13;;;26.70;99.90;;;;;;5066807;28;20216;-85
2023/08/21 12:25:35;;;;;;;4.22;2.05;;;26.30;99.90;;;;;;5033482;28;20213;-82
2023/08/21 12:28:00;;;;;;;4.32;2.13;;;26.50;99.90;;;;;;5067949;28;20224;-85
2023/08/21 12:30:26;;;;;;;5.05;1.75;;;26.60;99.90;;;;;;5066700;28;20425;-84
2023/08/21 12:32:52;;;;;;;3.22;1.42;;;26.60;99.90;;;;;;5032949;28;20239;-84
2023/08/21 12:35:17;;;;;;;3.22;1.25;;;26.90;99.90;;;;;;5048055;28;20213;-84
2023/08/21 12:37:43;;;;;;;4.57;1.55;;;26.30;99.90;;;;;;5031522;28;20705;-83
2023/08/21 12:40:09;;;;;;;1.30;1.20;;;26.20;99.90;;;;;;5065775;28;20213;-82
2023/08/21 12:42:35;;;;;;;3.35;1.58;;;26.20;99.90;;;;;;5065831;28;20178;-83
2023/08/21 12:45:03;;;;;;;1.92;1.50;;;26.60;99.90;;;;;;5066692;28;20177;-81